Time;durP1;ratioP1;P1;durP2;ratioP2;P2;SDS_P1;SDS_P2;PMS_P1;PMS_P2;Temp;Humidity;BMP_temperature;BMP_pressure;BME280_temperature;BME280_humidity;BME280_pressure;Samples;Min_cycle;Max_cycle;Signal;HPM_P1;HPM_P2
2022/07/04 00:00:56;;;;;;;2.47;1.20;;;;;;;19.96;74.88;96100.44;5001190;28;24541;-77
2022/07/04 00:03:23;;;;;;;5.53;1.38;;;;;;;19.93;74.80;96087.59;4994618;28;24433;-77
2022/07/04 00:05:50;;;;;;;8.55;1.40;;;;;;;20.00;74.26;96086.03;4996362;28;24441;-77
2022/07/04 00:08:16;;;;;;;2.50;1.10;;;;;;;19.93;74.08;96087.59;4995802;28;24507;-77
2022/07/04 00:10:43;;;;;;;5.10;1.20;;;;;;;19.89;74.74;96086.22;5003466;28;24854;-76
2022/07/04 00:13:09;;;;;;;6.75;1.33;;;;;;;19.72;75.83;96074.69;4995678;28;24806;-77
2022/07/04 00:15:35;;;;;;;2.80;1.20;;;;;;;19.69;76.34;96066.25;4992421;28;24437;-77
2022/07/04 00:18:02;;;;;;;3.65;1.23;;;;;;;19.54;77.25;96069.34;4987119;28;24840;-77
2022/07/04 00:20:30;;;;;;;2.30;1.15;;;;;;;19.43;78.77;96082.66;4995159;28;24495;-77
2022/07/04 00:22:56;;;;;;;3.17;1.10;;;;;;;19.39;79.55;96083.06;4987238;28;25004;-78
2022/07/04 00:25:23;;;;;;;4.70;1.40;;;;;;;19.30;79.78;96077.72;4981422;28;24994;-77
2022/07/04 00:27:49;;;;;;;2.40;1.20;;;;;;;19.46;79.17;96087.59;4988326;28;24827;-76
2022/07/04 00:30:16;;;;;;;2.47;1.10;;;;;;;19.37;79.84;96087.66;4987067;28;24479;-77
2022/07/04 00:32:42;;;;;;;4.57;1.37;;;;;;;19.22;80.78;96089.91;4995236;28;24476;-77
2022/07/04 00:35:09;;;;;;;2.83;1.48;;;;;;;19.14;82.08;96095.88;4994600;28;25012;-77
2022/07/04 00:37:37;;;;;;;3.42;1.20;;;;;;;19.14;82.25;96093.25;4991672;28;24456;-76
2022/07/04 00:40:04;;;;;;;4.65;1.45;;;;;;;19.13;82.48;96093.34;4989851;28;24826;-76
2022/07/04 00:42:31;;;;;;;3.00;1.30;;;;;;;19.12;82.11;96094.34;4994099;28;24974;-77
2022/07/04 00:44:57;;;;;;;6.70;1.40;;;;;;;19.14;81.76;96105.53;4992698;28;24534;-77
2022/07/04 00:47:24;;;;;;;4.50;1.70;;;;;;;19.12;82.10;96096.97;4993985;28;24433;-76
2022/07/04 00:49:50;;;;;;;3.10;1.40;;;;;;;19.12;81.36;96100.41;5000006;28;25000;-77
2022/07/04 00:52:18;;;;;;;2.00;1.20;;;;;;;18.96;82.29;96114.13;4996915;28;24456;-77
2022/07/04 00:54:46;;;;;;;5.97;1.40;;;;;;;18.99;81.92;96100.72;4993965;28;24858;-77
2022/07/04 00:57:13;;;;;;;2.47;1.08;;;;;;;19.07;81.17;96100.03;4993622;28;24465;-77
2022/07/04 00:59:39;;;;;;;2.45;1.25;;;;;;;18.95;81.97;96094.09;4978256;28;24795;-77
2022/07/04 01:02:06;;;;;;;2.95;1.20;;;;;;;19.08;81.63;96102.50;4994276;28;24827;-77
2022/07/04 01:04:33;;;;;;;8.02;1.80;;;;;;;19.06;81.53;96104.44;4993810;28;24532;-77
2022/07/04 01:06:59;;;;;;;2.95;1.55;;;;;;;19.16;80.45;96103.59;4993901;28;25044;-77
2022/07/04 01:09:26;;;;;;;3.03;1.42;;;;;;;19.07;81.21;96097.41;4993862;28;24441;-77
2022/07/04 01:11:53;;;;;;;2.47;1.25;;;;;;;19.10;81.24;96089.25;4985055;28;25290;-77
2022/07/04 01:14:20;;;;;;;1.65;1.13;;;;;;;19.10;80.79;96084.81;4992547;28;24441;-77
2022/07/04 01:16:46;;;;;;;5.57;1.45;;;;;;;19.19;80.06;96085.75;4985830;28;25026;-76
2022/07/04 01:19:13;;;;;;;4.97;1.90;;;;;;;19.01;81.45;96083.03;4994797;28;24444;-77
2022/07/04 01:21:41;;;;;;;3.90;1.40;;;;;;;19.12;80.73;96087.28;5011155;28;24426;-77
2022/07/04 01:24:11;;;;;;;3.20;1.50;;;;;;;18.98;81.50;96085.91;4992518;28;24440;-77
2022/07/04 01:26:38;;;;;;;3.75;1.45;;;;;;;18.94;81.67;96086.34;4991327;28;24456;-76
2022/07/04 01:29:04;;;;;;;2.90;1.58;;;;;;;18.91;82.09;96087.47;4981007;28;24440;-77
2022/07/04 01:31:30;;;;;;;3.20;1.40;;;;;;;18.88;81.71;96095.63;5001818;28;24459;-77
2022/07/04 01:33:57;;;;;;;3.80;1.27;;;;;;;18.94;81.98;96096.84;5000588;28;24875;-76
2022/07/04 01:36:23;;;;;;;2.35;1.35;;;;;;;18.74;82.53;96096.03;4993591;28;24441;-77
2022/07/04 01:38:51;;;;;;;4.87;1.70;;;;;;;18.58;83.29;96097.38;4993556;28;24993;-77
2022/07/04 01:41:17;;;;;;;3.70;1.30;;;;;;;18.53;84.02;96099.56;4993524;28;24436;-76
2022/07/04 01:43:44;;;;;;;6.75;1.40;;;;;;;18.61;83.61;96098.88;4993864;28;24492;-77
2022/07/04 01:46:10;;;;;;;3.97;1.23;;;;;;;18.60;83.91;96103.31;4993767;28;24445;-77
2022/07/04 01:48:37;;;;;;;3.00;1.48;;;;;;;18.69;83.84;96099.06;4983014;28;24441;-77
2022/07/04 01:51:03;;;;;;;6.35;1.45;;;;;;;18.73;82.35;96110.13;4989586;28;24436;-77
2022/07/04 01:53:30;;;;;;;3.13;0.93;;;;;;;18.85;80.97;96111.63;4994163;28;24468;-76
2022/07/04 01:55:58;;;;;;;2.53;1.47;;;;;;;18.80;80.86;96119.09;4993287;28;24448;-77
2022/07/04 01:58:24;;;;;;;10.07;1.30;;;;;;;18.83;81.41;96113.56;4993321;28;24586;-77
2022/07/04 02:03:35;;;;;;;2.37;1.13;;;;;;;18.88;81.05;96110.53;4997774;28;24480;-77
2022/07/04 02:06:01;;;;;;;2.38;1.45;;;;;;;18.93;81.26;96111.78;4995647;28;24444;-77
2022/07/04 02:09:14;;;;;;;1.98;1.25;;;;;;;18.98;80.22;96111.34;5002797;28;24444;-77
2022/07/04 02:11:15;;;;;;;2.60;1.30;;;;;;;18.90;79.66;96114.66;4982971;28;24982;-76
2022/07/04 02:13:41;;;;;;;3.05;1.45;;;;;;;18.97;78.90;96113.16;4993466;28;25056;-77
2022/07/04 02:16:07;;;;;;;3.40;1.13;;;;;;;19.02;79.53;96129.31;4993642;28;24425;-77
2022/07/04 02:18:34;;;;;;;3.22;1.08;;;;;;;19.09;79.43;96119.88;4986033;28;24437;-77
2022/07/04 02:21:00;;;;;;;2.78;1.15;;;;;;;19.07;79.37;96121.03;4994128;28;24891;-75
2022/07/04 02:23:27;;;;;;;4.60;1.20;;;;;;;19.07;78.64;96127.09;4996534;28;24488;-76
2022/07/04 02:25:53;;;;;;;1.98;1.15;;;;;;;19.05;78.00;96128.19;4996922;28;24449;-77
2022/07/04 02:28:21;;;;;;;1.90;1.30;;;;;;;19.08;77.69;96131.38;4997449;28;24447;-77
2022/07/04 02:30:47;;;;;;;4.40;1.33;;;;;;;19.01;78.56;96130.25;4997812;28;25135;-77
2022/07/04 02:33:14;;;;;;;3.20;1.30;;;;;;;19.05;77.77;96134.25;4989740;28;24450;-76
2022/07/04 02:35:40;;;;;;;1.85;1.08;;;;;;;18.86;78.39;96142.97;4999934;28;24441;-77
2022/07/04 02:38:07;;;;;;;3.70;1.50;;;;;;;18.60;79.55;96141.84;5002398;28;24451;-77
2022/07/04 02:40:33;;;;;;;2.53;1.40;;;;;;;18.45;81.37;96140.56;4996381;28;24448;-77
2022/07/04 02:43:00;;;;;;;3.60;1.38;;;;;;;18.32;82.41;96132.97;4990184;28;24444;-77
2022/07/04 02:45:27;;;;;;;2.53;1.60;;;;;;;18.29;82.42;96141.94;4989547;28;24452;-77
2022/07/04 02:47:54;;;;;;;2.95;1.27;;;;;;;18.43;81.59;96139.88;4995871;28;24441;-77
2022/07/04 02:50:20;;;;;;;3.08;1.20;;;;;;;18.52;81.65;96145.16;5006334;28;24441;-77
2022/07/04 02:52:47;;;;;;;4.30;1.48;;;;;;;18.52;81.33;96150.38;4991122;28;24463;-77
2022/07/04 02:55:13;;;;;;;6.75;1.40;;;;;;;18.66;82.24;96154.41;4996535;28;24443;-76
2022/07/04 02:57:40;;;;;;;3.58;1.52;;;;;;;18.51;81.43;96147.91;4996478;28;24441;-77
2022/07/04 03:00:07;;;;;;;3.15;1.33;;;;;;;18.54;81.20;96148.47;4980452;28;25157;-77
2022/07/04 03:02:35;;;;;;;4.70;1.33;;;;;;;18.54;81.67;96160.72;4985650;28;24474;-77
2022/07/04 03:05:01;;;;;;;6.85;1.58;;;;;;;18.67;80.71;96160.50;4982966;28;24477;-77
2022/07/04 03:07:28;;;;;;;3.40;1.60;;;;;;;18.31;81.47;96160.97;4988630;28;24449;-77
2022/07/04 03:09:54;;;;;;;3.67;1.52;;;;;;;18.42;81.13;96148.72;4986651;28;24437;-77
2022/07/04 03:12:21;;;;;;;1.92;1.30;;;;;;;18.43;80.76;96152.97;4991464;28;24452;-77
2022/07/04 03:14:47;;;;;;;5.40;1.63;;;;;;;18.31;81.11;96162.75;4984344;28;24452;-77
2022/07/04 03:17:14;;;;;;;4.25;1.42;;;;;;;18.30;81.57;96154.06;4995979;28;24456;-78
2022/07/04 03:19:41;;;;;;;3.65;1.30;;;;;;;18.44;81.29;96160.72;4999541;28;24470;-77
2022/07/04 03:22:08;;;;;;;3.70;1.20;;;;;;;18.38;81.55;96158.63;4995040;28;24445;-78
2022/07/04 03:24:34;;;;;;;3.00;1.45;;;;;;;18.25;81.18;96155.44;4997379;28;24448;-77
2022/07/04 03:27:01;;;;;;;2.60;1.20;;;;;;;18.01;82.22;96151.34;4994051;28;25021;-78
2022/07/04 03:29:27;;;;;;;16.80;1.50;;;;;;;17.96;83.26;96156.19;4984771;28;24433;-78
2022/07/04 03:31:54;;;;;;;2.80;1.70;;;;;;;18.05;82.91;96152.75;4994215;28;24437;-78
2022/07/04 03:34:20;;;;;;;2.30;1.30;;;;;;;18.11;82.26;96160.09;4985097;28;24450;-77
2022/07/04 03:36:48;;;;;;;2.43;1.50;;;;;;;17.88;82.99;96164.69;4988710;28;24827;-77
2022/07/04 03:39:15;;;;;;;5.73;1.30;;;;;;;17.92;84.00;96159.22;4996122;28;24502;-77
2022/07/04 03:41:41;;;;;;;1.90;1.40;;;;;;;18.04;83.64;96158.97;4996209;28;24517;-78
2022/07/04 03:44:08;;;;;;;5.15;1.42;;;;;;;18.09;82.22;96164.63;4999279;28;24440;-77
2022/07/04 03:46:34;;;;;;;2.13;1.20;;;;;;;18.12;82.16;96168.78;5001324;28;24444;-78
2022/07/04 03:49:00;;;;;;;3.70;1.40;;;;;;;17.85;82.33;96175.44;4995418;28;24791;-77
2022/07/04 03:51:27;;;;;;;2.65;1.30;;;;;;;17.84;83.24;96173.78;4995120;28;24444;-77
2022/07/04 03:53:55;;;;;;;1.67;1.17;;;;;;;17.98;82.50;96180.44;4997077;28;24524;-77
2022/07/04 03:56:21;;;;;;;4.10;1.70;;;;;;;17.81;81.74;96181.09;4993817;28;24444;-77
2022/07/04 03:58:48;;;;;;;2.67;1.15;;;;;;;17.84;82.59;96176.41;4995018;28;24433;-78
2022/07/04 04:01:15;;;;;;;4.73;1.40;;;;;;;17.81;82.89;96188.94;4995139;28;24437;-77
2022/07/04 04:06:22;;;;;;;2.08;1.30;;;;;;;17.92;83.20;96195.88;4982085;28;24468;-78
2022/07/04 04:08:48;;;;;;;3.08;1.40;;;;;;;17.97;82.61;96194.53;4997622;28;24440;-77
2022/07/04 04:11:16;;;;;;;2.17;1.00;;;;;;;18.02;83.52;96199.34;4996915;28;24476;-78
2022/07/04 04:13:43;;;;;;;5.38;1.17;;;;;;;17.98;83.32;96201.41;4983480;28;24488;-77
2022/07/04 04:16:10;;;;;;;5.82;1.25;;;;;;;18.07;83.30;96205.88;4993066;28;24970;-77
2022/07/04 04:18:36;;;;;;;4.80;1.48;;;;;;;18.12;83.06;96208.94;4993765;28;24440;-77
2022/07/04 04:21:03;;;;;;;2.40;1.15;;;;;;;18.14;82.20;96222.75;4989276;28;24433;-77
2022/07/04 04:23:30;;;;;;;1.55;1.13;;;;;;;18.17;81.14;96215.56;4993719;28;24452;-78
2022/07/04 04:25:56;;;;;;;2.28;1.38;;;;;;;18.00;80.99;96223.09;5005849;28;24444;-77
2022/07/04 04:28:24;;;;;;;3.47;1.30;;;;;;;17.85;81.52;96227.03;4992360;28;24483;-77
2022/07/04 04:30:51;;;;;;;3.42;1.42;;;;;;;17.75;81.85;96233.94;4991615;28;24433;-77
2022/07/04 04:33:17;;;;;;;2.75;1.30;;;;;;;17.63;83.84;96233.19;4993499;28;24452;-77
2022/07/04 04:35:44;;;;;;;3.80;1.33;;;;;;;17.74;84.68;96235.75;4992857;28;24484;-77
2022/07/04 04:38:11;;;;;;;2.83;1.45;;;;;;;17.83;84.47;96244.66;4993852;28;24444;-77
2022/07/04 04:40:37;;;;;;;2.25;1.38;;;;;;;17.93;84.39;96240.28;4993720;28;24436;-77
2022/07/04 04:43:04;;;;;;;1.98;1.35;;;;;;;18.04;84.31;96242.84;4993274;28;24799;-77
2022/07/04 04:45:31;;;;;;;6.25;1.50;;;;;;;18.02;84.72;96242.16;4993574;28;24483;-78
2022/07/04 04:47:58;;;;;;;3.70;1.63;;;;;;;17.70;88.43;96247.44;4993408;28;24445;-78
2022/07/04 04:50:24;;;;;;;3.13;1.58;;;;;;;17.71;88.82;96246.47;4994972;28;24421;-78
2022/07/04 04:52:51;;;;;;;4.97;1.70;;;;;;;17.61;87.48;96254.28;4992344;28;24458;-78
2022/07/04 04:55:17;;;;;;;2.97;1.30;;;;;;;17.72;86.87;96252.53;4984294;28;24448;-77
2022/07/04 04:57:43;;;;;;;4.90;1.27;;;;;;;17.52;87.42;96257.66;4990475;28;24500;-78
2022/07/04 05:00:11;;;;;;;2.67;1.20;;;;;;;17.29;88.24;96248.25;4988159;28;24484;-78
2022/07/04 05:02:39;;;;;;;7.38;1.60;;;;;;;17.26;89.31;96248.50;4993936;28;24436;-78
2022/07/04 05:05:06;;;;;;;5.03;1.80;;;;;;;17.27;89.22;96244.91;4993365;28;24424;-77
2022/07/04 05:07:33;;;;;;;3.47;1.50;;;;;;;17.18;87.86;96255.19;4993830;28;24487;-78
2022/07/04 05:10:01;;;;;;;3.63;1.42;;;;;;;17.30;87.26;96260.38;4993268;28;24441;-77
2022/07/04 05:12:27;;;;;;;2.87;1.40;;;;;;;17.44;86.50;96257.47;4992412;28;24433;-77
2022/07/04 05:14:56;;;;;;;1.83;1.10;;;;;;;17.55;86.36;96261.81;4998706;28;21553;-77
2022/07/04 05:17:23;;;;;;;2.88;1.60;;;;;;;17.71;85.33;96256.13;4993731;28;24446;-78
2022/07/04 05:19:51;;;;;;;2.58;1.50;;;;;;;17.76;85.32;96253.97;4988045;28;24448;-77
2022/07/04 05:22:18;;;;;;;4.55;1.20;;;;;;;17.74;84.71;96251.47;4984558;28;24432;-77
2022/07/04 05:24:44;;;;;;;2.83;1.30;;;;;;;17.76;83.45;96253.97;4992879;28;24468;-78
2022/07/04 05:27:11;;;;;;;6.30;1.73;;;;;;;17.66;83.26;96244.25;4993081;28;24465;-77
2022/07/04 05:29:38;;;;;;;2.90;1.37;;;;;;;17.76;84.24;96236.50;4987989;28;24661;-78
2022/07/04 05:32:05;;;;;;;2.17;1.25;;;;;;;17.94;83.53;96235.88;4993112;28;24449;-77
2022/07/04 05:34:31;;;;;;;1.75;1.00;;;;;;;18.07;83.71;96234.72;4991304;28;25017;-77
2022/07/04 05:36:59;;;;;;;1.85;1.10;;;;;;;18.31;84.55;96234.38;4988342;28;24444;-78
2022/07/04 05:39:26;;;;;;;2.25;1.25;;;;;;;18.33;80.07;96235.09;4992863;28;24839;-77
2022/07/04 05:41:52;;;;;;;3.95;1.52;;;;;;;18.30;78.91;96240.59;4986602;28;24441;-77
2022/07/04 05:44:19;;;;;;;2.97;1.20;;;;;;;18.10;80.72;96236.25;4991262;28;24440;-77
2022/07/04 05:46:45;;;;;;;2.85;1.30;;;;;;;17.87;80.97;96236.41;4985669;28;25016;-77
2022/07/04 05:49:11;;;;;;;2.35;1.35;;;;;;;17.81;80.22;96231.69;4991149;28;24448;-78
2022/07/04 05:51:38;;;;;;;2.67;1.33;;;;;;;17.71;80.50;96224.69;4986660;28;24444;-78
2022/07/04 05:54:06;;;;;;;3.35;1.45;;;;;;;17.73;81.82;96226.22;4986071;28;24449;-78
2022/07/04 05:56:32;;;;;;;3.22;1.25;;;;;;;17.86;80.83;96212.94;4986604;28;24444;-78
2022/07/04 05:58:58;;;;;;;2.85;1.10;;;;;;;17.97;81.93;96207.63;5000571;28;24433;-78
2022/07/04 06:01:25;;;;;;;3.17;1.40;;;;;;;17.96;81.52;96213.84;4990674;28;24434;-77
2022/07/04 06:03:51;;;;;;;2.45;1.35;;;;;;;17.90;80.75;96217.78;4995411;28;24460;-77
2022/07/04 06:06:18;;;;;;;7.00;1.60;;;;;;;17.91;81.50;96216.03;4998174;28;24452;-77
2022/07/04 06:08:44;;;;;;;3.00;1.30;;;;;;;17.77;80.80;96217.19;4990242;28;24503;-77
2022/07/04 06:11:12;;;;;;;3.13;1.30;;;;;;;18.14;84.72;96214.88;4997178;28;24437;-78
2022/07/04 06:13:38;;;;;;;3.13;1.40;;;;;;;18.36;80.87;96223.53;4996998;28;24461;-77
2022/07/04 06:16:05;;;;;;;2.00;1.30;;;;;;;18.62;80.17;96229.13;5002269;28;24433;-78
2022/07/04 06:18:31;;;;;;;1.65;1.15;;;;;;;18.65;77.22;96222.75;4997055;28;24966;-77
2022/07/04 06:20:58;;;;;;;3.28;1.65;;;;;;;18.62;76.23;96232.56;4998407;28;24465;-77
2022/07/04 06:23:24;;;;;;;2.40;1.23;;;;;;;18.56;76.36;96221.78;4997386;28;24990;-77
2022/07/04 06:25:51;;;;;;;2.33;1.30;;;;;;;18.72;77.57;96227.34;4985669;28;25002;-78
2022/07/04 06:28:19;;;;;;;7.32;1.42;;;;;;;18.70;77.56;96228.44;4996851;28;24436;-77
2022/07/04 06:30:45;;;;;;;2.65;1.13;;;;;;;18.69;77.82;96224.13;4990974;28;24905;-78
2022/07/04 06:33:11;;;;;;;2.80;1.30;;;;;;;18.98;80.08;96230.28;4984375;28;24459;-77
2022/07/04 06:35:46;;;;;;;2.58;1.33;;;;;;;19.33;80.12;96237.63;4996614;28;24441;-76
2022/07/04 06:38:14;;;;;;;9.90;1.48;;;;;;;19.34;75.32;96234.03;4993631;28;24444;-77
2022/07/04 06:40:41;;;;;;;2.25;1.20;;;;;;;19.55;76.39;96233.88;4978503;28;24442;-77
2022/07/04 06:43:08;;;;;;;4.67;1.17;;;;;;;19.81;75.61;96230.69;4992005;28;24444;-79
2022/07/04 06:45:36;;;;;;;3.67;1.52;;;;;;;19.85;73.01;96231.25;4996390;28;24476;-77
2022/07/04 06:48:04;;;;;;;2.95;1.40;;;;;;;20.08;75.97;96243.06;4996724;28;24444;-78
2022/07/04 06:50:32;;;;;;;8.23;1.48;;;;;;;20.17;70.93;96229.06;4995530;28;24475;-77
2022/07/04 06:52:59;;;;;;;2.55;1.25;;;;;;;20.34;72.14;96237.16;4990631;28;24436;-78
2022/07/04 06:55:25;;;;;;;4.85;1.50;;;;;;;20.25;71.88;96231.81;4994996;28;24908;-78
2022/07/04 06:57:51;;;;;;;2.85;1.15;;;;;;;20.38;71.88;96231.44;4993345;28;24811;-79
2022/07/04 07:00:18;;;;;;;4.85;1.42;;;;;;;20.20;74.41;96241.06;4990155;28;24434;-78
2022/07/04 07:02:46;;;;;;;3.45;1.45;;;;;;;20.11;75.66;96229.63;4990954;28;24586;-79
2022/07/04 07:05:12;;;;;;;3.00;1.20;;;;;;;20.24;72.88;96226.66;5007740;28;24464;-79
2022/07/04 07:07:39;;;;;;;4.27;1.50;;;;;;;20.22;71.06;96218.94;4999728;28;24441;-74
2022/07/04 07:10:07;;;;;;;4.38;1.60;;;;;;;20.55;70.77;96216.72;4988155;28;24436;-78
2022/07/04 07:12:34;;;;;;;3.33;1.33;;;;;;;20.54;73.21;96215.91;4995394;28;24528;-78
2022/07/04 07:15:00;;;;;;;2.80;1.40;;;;;;;20.36;70.22;96224.66;4993712;28;24452;-78
2022/07/04 07:17:27;;;;;;;2.30;1.20;;;;;;;20.42;71.54;96214.41;4987939;28;24445;-78
2022/07/04 07:19:55;;;;;;;3.67;1.20;;;;;;;20.20;73.82;96215.59;4996274;28;24495;-78
2022/07/04 07:22:22;;;;;;;2.13;1.00;;;;;;;20.24;75.20;96208.25;4992712;28;25017;-79
2022/07/04 07:24:48;;;;;;;2.58;1.10;;;;;;;20.08;75.72;96214.13;4993977;28;24989;-79
2022/07/04 07:27:15;;;;;;;4.05;1.45;;;;;;;20.29;73.00;96213.94;4995599;28;24987;-78
2022/07/04 07:29:41;;;;;;;3.95;1.48;;;;;;;20.33;74.88;96210.03;4991347;28;24448;-78
2022/07/04 07:32:09;;;;;;;5.70;1.55;;;;;;;20.08;72.32;96205.44;4992432;28;24992;-80
2022/07/04 07:34:36;;;;;;;3.95;1.38;;;;;;;19.83;73.00;96200.66;4990582;28;24455;-79
2022/07/04 07:37:04;;;;;;;1.90;1.20;;;;;;;20.18;76.26;96204.41;4993810;28;24437;-78
2022/07/04 07:39:30;;;;;;;3.53;1.30;;;;;;;20.05;71.81;96202.09;4989875;28;24975;-79
2022/07/04 07:41:57;;;;;;;1.90;1.30;;;;;;;20.03;71.40;96203.22;4993797;28;25106;-79
2022/07/04 07:44:23;;;;;;;4.00;1.55;;;;;;;19.90;72.54;96206.16;4990088;28;24990;-78
2022/07/04 07:46:50;;;;;;;3.67;1.52;;;;;;;20.14;74.43;96203.06;4992195;28;24452;-78
2022/07/04 07:49:16;;;;;;;2.60;1.33;;;;;;;20.37;74.15;96208.75;4990833;28;24464;-78
2022/07/04 07:51:43;;;;;;;1.92;1.10;;;;;;;19.94;73.92;96204.91;4995687;28;24437;-78
2022/07/04 07:54:11;;;;;;;2.78;1.35;;;;;;;19.53;75.80;96206.09;4993649;28;24807;-78
2022/07/04 07:56:37;;;;;;;4.55;1.65;;;;;;;19.50;75.61;96217.69;4994706;28;24499;-78
2022/07/04 07:59:03;;;;;;;2.85;1.65;;;;;;;19.47;75.24;96217.19;4995536;28;24827;-79
2022/07/04 08:01:30;;;;;;;2.80;1.80;;;;;;;19.45;78.41;96212.03;4995288;28;24912;-79
2022/07/04 08:06:41;;;;;;;2.55;1.35;;;;;;;19.25;77.04;96213.03;4991949;28;24515;-79
2022/07/04 08:09:08;;;;;;;4.40;1.40;;;;;;;19.44;76.68;96213.03;4994182;28;24487;-79
2022/07/04 08:11:36;;;;;;;1.80;1.30;;;;;;;19.38;75.40;96213.56;4994758;28;25053;-79
2022/07/04 08:14:02;;;;;;;2.78;1.35;;;;;;;19.29;75.67;96219.69;4992813;28;24457;-79
2022/07/04 08:16:29;;;;;;;2.75;1.48;;;;;;;19.57;74.49;96215.34;4986805;28;24441;-77
2022/07/04 08:18:55;;;;;;;3.97;1.50;;;;;;;19.45;76.17;96205.97;4991548;28;24491;-77
2022/07/04 08:21:21;;;;;;;4.10;1.60;;;;;;;19.48;75.69;96208.31;4986489;28;24452;-77
2022/07/04 08:23:48;;;;;;;8.45;1.48;;;;;;;19.63;76.55;96206.94;4989255;28;24478;-77
2022/07/04 08:28:41;;;;;;;11.60;1.50;;;;;;;20.56;76.66;96202.59;5050497;23;24555;-74
2022/07/04 08:31:07;;;;;;;2.53;1.27;;;;;;;20.51;73.48;96194.31;5026859;28;24856;-76
2022/07/04 08:33:34;;;;;;;2.38;1.33;;;;;;;20.52;75.75;96198.59;5027802;28;24456;-72
2022/07/04 08:36:00;;;;;;;4.00;1.40;;;;;;;20.82;71.67;96191.34;5023665;28;24439;-73
2022/07/04 08:38:27;;;;;;;3.13;1.30;;;;;;;20.97;75.26;96187.22;5006964;28;24842;-72
2022/07/04 08:40:57;;;;;;;3.00;1.48;;;;;;;21.08;72.09;96188.81;5003615;28;24985;-72
2022/07/04 08:43:26;;;;;;;2.25;1.25;;;;;;;21.29;70.67;96185.88;5006390;28;24520;-72
2022/07/04 08:45:55;;;;;;;4.50;1.23;;;;;;;21.32;75.45;96193.44;5001007;28;25016;-72
2022/07/04 08:48:25;;;;;;;3.55;1.45;;;;;;;20.95;68.21;96183.91;5010160;28;24444;-72
2022/07/04 08:50:57;;;;;;;4.63;1.38;;;;;;;21.35;66.90;96180.81;5011035;28;24464;-72
2022/07/04 08:53:28;;;;;;;5.85;1.30;;;;;;;21.29;64.82;96188.50;5006124;28;24421;-71
2022/07/04 08:58:40;;;;;;;2.70;1.67;;;;;;;21.55;69.59;96183.28;5006551;28;24435;-71
2022/07/04 09:01:14;;;;;;;5.07;1.20;;;;;;;21.81;65.88;96173.56;5002618;28;24436;-71
2022/07/04 09:03:41;;;;;;;3.22;1.60;;;;;;;21.96;66.26;96177.28;5003553;28;24432;-71
2022/07/04 09:06:08;;;;;;;2.75;1.10;;;;;;;22.10;62.55;96183.78;5005517;28;25035;-71
2022/07/04 09:08:34;;;;;;;2.42;1.27;;;;;;;22.19;60.61;96185.50;5001821;28;24436;-70
2022/07/04 09:11:01;;;;;;;2.65;1.30;;;;;;;22.05;60.76;96186.06;5001884;28;24842;-70
2022/07/04 09:13:27;;;;;;;2.75;1.23;;;;;;;22.51;57.86;96193.69;5002688;28;24831;-70
2022/07/04 09:15:56;;;;;;;4.70;1.20;;;;;;;23.05;58.65;96191.53;5009361;28;24452;-70
2022/07/04 09:18:27;;;;;;;4.13;1.10;;;;;;;22.84;51.66;96192.81;5001708;28;24577;-70
2022/07/04 09:20:56;;;;;;;3.10;1.30;;;;;;;23.26;53.56;96194.53;5000892;28;24535;-71
2022/07/04 09:23:25;;;;;;;2.42;1.15;;;;;;;23.21;55.24;96201.28;5007310;28;24436;-70
2022/07/04 09:26:10;;;;;;;4.55;1.30;;;;;;;23.33;58.07;96203.47;5007779;28;24444;-70
2022/07/04 09:28:37;;;;;;;3.03;1.30;;;;;;;22.61;54.32;96202.31;5008733;28;24448;-70
2022/07/04 09:31:14;;;;;;;1.73;1.00;;;;;;;22.58;57.85;96202.63;5009317;28;24443;-70
2022/07/04 09:33:53;;;;;;;9.55;1.40;;;;;;;22.63;58.58;96208.28;5005218;28;24443;-71
2022/07/04 09:36:21;;;;;;;1.77;1.00;;;;;;;22.30;54.96;96207.31;5008180;28;24432;-71
2022/07/04 09:39:09;;;;;;;3.55;1.40;;;;;;;22.81;57.50;96211.63;5005677;28;24444;-71
2022/07/04 09:41:51;;;;;;;2.65;1.10;;;;;;;23.01;58.92;96214.00;5009095;28;24523;-70
2022/07/04 09:44:17;;;;;;;2.42;1.15;;;;;;;23.19;54.98;96217.34;5006928;28;24463;-70
2022/07/04 09:46:44;;;;;;;3.70;1.20;;;;;;;23.33;53.76;96213.22;5007084;28;24443;-71
2022/07/04 09:49:13;;;;;;;2.40;1.13;;;;;;;23.90;56.00;96210.56;5008426;28;24444;-71
2022/07/04 09:51:42;;;;;;;3.70;1.30;;;;;;;24.06;54.15;96210.50;5007018;28;24448;-70
2022/07/04 09:54:21;;;;;;;1.93;1.00;;;;;;;24.39;54.48;96215.72;5006995;28;24602;-71
2022/07/04 09:56:50;;;;;;;3.92;1.20;;;;;;;24.46;55.30;96208.75;5007072;28;24989;-70
2022/07/04 09:59:17;;;;;;;3.30;1.10;;;;;;;24.53;54.15;96220.31;5006020;28;24444;-70
2022/07/04 10:01:44;;;;;;;3.60;1.10;;;;;;;24.68;55.83;96217.75;5006782;28;24439;-72
2022/07/04 10:04:13;;;;;;;1.85;1.10;;;;;;;24.01;50.40;96226.06;5006933;28;24598;-72
2022/07/04 10:06:41;;;;;;;5.45;1.35;;;;;;;23.99;49.91;96224.56;5006911;28;24539;-72
2022/07/04 10:09:10;;;;;;;4.27;1.17;;;;;;;24.04;49.92;96214.34;5003972;28;24821;-72
2022/07/04 10:11:38;;;;;;;7.57;1.38;;;;;;;24.35;50.62;96212.56;5007829;28;24881;-73
2022/07/04 10:14:06;;;;;;;4.25;1.50;;;;;;;24.94;58.05;96217.47;5006066;28;24443;-72
2022/07/04 10:16:33;;;;;;;4.47;1.10;;;;;;;25.10;56.08;96214.75;5007936;28;24528;-72
2022/07/04 10:18:59;;;;;;;3.72;1.58;;;;;;;25.07;51.87;96214.25;5008115;28;24813;-72
2022/07/04 10:21:27;;;;;;;2.10;1.02;;;;;;;25.06;54.04;96212.59;5007406;28;24435;-72
2022/07/04 10:23:54;;;;;;;4.00;1.30;;;;;;;24.87;52.71;96213.84;5003415;28;24439;-72
2022/07/04 10:26:22;;;;;;;4.68;1.30;;;;;;;24.80;57.28;96203.13;5008024;28;24440;-72
2022/07/04 10:28:51;;;;;;;1.95;1.10;;;;;;;24.96;56.40;96207.53;5008831;28;24444;-72
2022/07/04 10:31:18;;;;;;;2.58;1.10;;;;;;;25.06;50.66;96207.28;5003512;28;24445;-71
2022/07/04 10:33:46;;;;;;;1.77;1.20;;;;;;;25.09;50.26;96206.94;5006244;28;24448;-73
2022/07/04 10:36:17;;;;;;;3.97;1.60;;;;;;;25.15;52.10;96211.56;5003356;28;24479;-71
2022/07/04 10:38:55;;;;;;;3.92;1.25;;;;;;;25.10;50.05;96203.31;5000901;28;24440;-71
2022/07/04 10:41:23;;;;;;;3.00;1.13;;;;;;;25.23;53.21;96208.84;5004041;28;24456;-71
2022/07/04 10:43:56;;;;;;;5.97;1.47;;;;;;;25.33;49.06;96214.75;5011166;28;24444;-72
2022/07/04 10:46:36;;;;;;;4.75;1.40;;;;;;;25.46;54.62;96202.72;5008588;28;24844;-72
2022/07/04 10:49:05;;;;;;;3.23;1.40;;;;;;;25.72;54.57;96195.19;5010828;28;24436;-71
2022/07/04 10:51:43;;;;;;;2.80;1.10;;;;;;;25.56;51.28;96200.66;5003581;28;24510;-71
2022/07/04 10:54:14;;;;;;;3.92;1.52;;;;;;;25.60;50.61;96207.25;5009951;28;24436;-71
2022/07/04 10:56:46;;;;;;;2.90;1.38;;;;;;;25.72;52.58;96205.81;5011336;28;24447;-71
2022/07/04 10:59:17;;;;;;;3.67;1.47;;;;;;;25.84;50.44;96198.25;5012010;28;24448;-71
2022/07/04 11:02:16;;;;;;;3.80;1.40;;;;;;;25.81;47.83;96193.34;5009063;28;24520;-73
2022/07/04 11:05:01;;;;;;;1.67;1.13;;;;;;;25.78;51.33;96188.34;5008399;28;24494;-75
2022/07/04 11:08:02;;;;;;;2.78;1.20;;;;;;;25.75;47.70;96183.41;5005447;28;24456;-71
2022/07/04 11:10:33;;;;;;;4.50;1.27;;;;;;;25.68;50.49;96180.63;4998267;28;24986;-71
2022/07/04 11:13:19;;;;;;;2.60;1.05;;;;;;;26.38;50.60;96179.41;5011566;28;24425;-71
2022/07/04 11:16:08;;;;;;;2.13;1.33;;;;;;;26.09;46.84;96180.25;5007031;28;24467;-71
2022/07/04 11:18:42;;;;;;;2.40;1.10;;;;;;;25.52;48.20;96178.16;5007703;28;24535;-71
2022/07/04 11:21:20;;;;;;;3.03;1.30;;;;;;;25.47;49.88;96186.63;5003249;28;24440;-71
2022/07/04 11:23:54;;;;;;;2.35;1.40;;;;;;;25.73;50.44;96183.56;5011208;28;24798;-71
2022/07/04 11:26:23;;;;;;;4.75;1.63;;;;;;;26.06;55.47;96176.13;5001127;28;24428;-70
2022/07/04 11:28:49;;;;;;;2.40;1.25;;;;;;;25.66;50.66;96182.66;5003777;28;24515;-70
2022/07/04 11:31:16;;;;;;;5.70;1.60;;;;;;;25.07;48.04;96177.16;5010473;28;25164;-70
2022/07/04 11:33:44;;;;;;;2.20;1.30;;;;;;;25.35;49.30;96175.63;5004208;28;25017;-70
2022/07/04 11:36:14;;;;;;;4.80;1.30;;;;;;;25.52;50.09;96168.38;5011888;28;24498;-70
2022/07/04 11:38:49;;;;;;;2.10;1.30;;;;;;;25.68;50.33;96172.69;5000058;28;24429;-70
2022/07/04 11:46:50;;;;;;;2.45;1.30;;;;;;;24.38;51.43;96158.47;5008551;28;24443;-70
2022/07/04 11:49:17;;;;;;;4.00;1.48;;;;;;;24.46;51.55;96163.75;5008164;28;24441;-70
2022/07/04 11:51:44;;;;;;;2.17;1.63;;;;;;;24.20;52.19;96156.06;5009346;28;24488;-70
2022/07/04 11:54:11;;;;;;;1.85;1.23;;;;;;;24.50;55.91;96154.47;5008108;28;25036;-70
2022/07/04 11:56:37;;;;;;;1.90;1.13;;;;;;;24.96;53.26;96151.06;5010545;28;24456;-70